Felker Army Air Field Fort Eustis US
ICAO: KFAF
IATA: FAF
Category: Medium
Scheduled Services: No

Elevation: 12 ft
TransAlt. 18000 ft.

Airport Communications:
NORFOLK APP/DEP:125.7
CTAF:126.3
GND:121.35
BASE OPS:134.1
PMSV METRO:134.1
TWR:126.3

KFAF Zoom In..

Runways:

(A) RW 14 length 3025 ft width 75 ft
---- / hdg 139

(B) RW 32 length 3025 ft width 75 ft
---- / hdg 319

Location; KFAF
Day. 21 / Time. 14.36 Zulu
* Altimeter: 30.15
* Temperature: 23° c. 73.4°f.
* Wind from: 070° Speed 08 kn.
Dewpoint: 18° c.
Visibility: 10 Statute Miles.
Clouds: Overcast 1600 ft.

KFAF 211436Z 07008KT 10SM OVC016 23/18 A3015 RMK AO2A CIG 012V016 SLP213 $


Wind From 070°
Speed 08 kn.

 
 
jpsmedia.com for Web Design SOUNDCLOUD worldairports.se 2018   terms of use